sensor_id;sensor_type;location;lat;lon;timestamp;pressure;altitude;pressure_sealevel;temperature;humidity
4836;BME280;2432;51.226;6.904;2022-07-23T00:01:22;101065.03;;;17.77;100.00
4836;BME280;2432;51.226;6.904;2022-07-23T00:03:53;101075.75;;;17.74;100.00
4836;BME280;2432;51.226;6.904;2022-07-23T00:06:21;101063.44;;;17.73;100.00
4836;BME280;2432;51.226;6.904;2022-07-23T00:08:49;101077.66;;;17.70;100.00
4836;BME280;2432;51.226;6.904;2022-07-23T00:11:16;101068.09;;;17.66;100.00
4836;BME280;2432;51.226;6.904;2022-07-23T00:13:43;101069.09;;;17.64;100.00
4836;BME280;2432;51.226;6.904;2022-07-23T00:16:09;101072.66;;;17.63;100.00
4836;BME280;2432;51.226;6.904;2022-07-23T00:18:37;101076.13;;;17.65;100.00
4836;BME280;2432;51.226;6.904;2022-07-23T00:21:04;101074.50;;;17.61;100.00
4836;BME280;2432;51.226;6.904;2022-07-23T00:23:30;101073.50;;;17.63;100.00
4836;BME280;2432;51.226;6.904;2022-07-23T00:25:57;101067.34;;;17.63;100.00
4836;BME280;2432;51.226;6.904;2022-07-23T00:28:24;101067.34;;;17.63;100.00
4836;BME280;2432;51.226;6.904;2022-07-23T00:30:51;101065.63;;;17.62;100.00
4836;BME280;2432;51.226;6.904;2022-07-23T00:33:18;101057.97;;;17.56;100.00
4836;BME280;2432;51.226;6.904;2022-07-23T00:35:45;101062.41;;;17.55;100.00
4836;BME280;2432;51.226;6.904;2022-07-23T00:38:11;101062.41;;;17.55;100.00
4836;BME280;2432;51.226;6.904;2022-07-23T00:40:39;101061.47;;;17.56;100.00
4836;BME280;2432;51.226;6.904;2022-07-23T00:43:06;101065.06;;;17.55;100.00
4836;BME280;2432;51.226;6.904;2022-07-23T00:45:33;101048.66;;;17.45;100.00
4836;BME280;2432;51.226;6.904;2022-07-23T00:48:00;101054.88;;;17.44;100.00
4836;BME280;2432;51.226;6.904;2022-07-23T00:50:27;101063.03;;;17.40;100.00
4836;BME280;2432;51.226;6.904;2022-07-23T00:52:54;101061.13;;;17.43;100.00
4836;BME280;2432;51.226;6.904;2022-07-23T00:55:20;101063.44;;;17.51;100.00
4836;BME280;2432;51.226;6.904;2022-07-23T00:57:47;101065.22;;;17.50;100.00
4836;BME280;2432;51.226;6.904;2022-07-23T01:00:14;101058.22;;;17.49;100.00
4836;BME280;2432;51.226;6.904;2022-07-23T01:02:42;101060.94;;;17.48;100.00
4836;BME280;2432;51.226;6.904;2022-07-23T01:05:09;101061.13;;;17.43;100.00
4836;BME280;2432;51.226;6.904;2022-07-23T01:07:36;101062.09;;;17.41;100.00
4836;BME280;2432;51.226;6.904;2022-07-23T01:10:04;101063.53;;;17.28;100.00
4836;BME280;2432;51.226;6.904;2022-07-23T01:12:51;101064.81;;;17.17;100.00
4836;BME280;2432;51.226;6.904;2022-07-23T01:15:17;101066.69;;;17.15;100.00
4836;BME280;2432;51.226;6.904;2022-07-23T01:17:44;101064.56;;;17.02;100.00
4836;BME280;2432;51.226;6.904;2022-07-23T01:20:10;101072.00;;;16.92;100.00
4836;BME280;2432;51.226;6.904;2022-07-23T01:22:37;101061.72;;;16.84;100.00
4836;BME280;2432;51.226;6.904;2022-07-23T01:25:04;101071.28;;;16.88;100.00
4836;BME280;2432;51.226;6.904;2022-07-23T01:27:31;101070.91;;;16.98;100.00
4836;BME280;2432;51.226;6.904;2022-07-23T01:30:00;101069.00;;;17.01;100.00
4836;BME280;2432;51.226;6.904;2022-07-23T01:32:27;101068.91;;;17.04;100.00
4836;BME280;2432;51.226;6.904;2022-07-23T01:34:53;101062.47;;;17.10;100.00
4836;BME280;2432;51.226;6.904;2022-07-23T01:37:20;101075.06;;;17.05;100.00
4836;BME280;2432;51.226;6.904;2022-07-23T01:39:46;101070.44;;;16.88;100.00
4836;BME280;2432;51.226;6.904;2022-07-23T01:42:13;101069.63;;;16.86;100.00
4836;BME280;2432;51.226;6.904;2022-07-23T01:44:40;101067.94;;;16.83;100.00
4836;BME280;2432;51.226;6.904;2022-07-23T01:47:06;101066.56;;;16.73;100.00
4836;BME280;2432;51.226;6.904;2022-07-23T01:49:33;101061.75;;;16.61;100.00
4836;BME280;2432;51.226;6.904;2022-07-23T01:51:59;101049.25;;;16.64;100.00
4836;BME280;2432;51.226;6.904;2022-07-23T01:54:31;101052.56;;;16.71;100.00
4836;BME280;2432;51.226;6.904;2022-07-23T01:56:59;101045.47;;;16.72;100.00
4836;BME280;2432;51.226;6.904;2022-07-23T01:59:27;101043.84;;;16.67;100.00
4836;BME280;2432;51.226;6.904;2022-07-23T02:01:54;101052.44;;;16.51;100.00
4836;BME280;2432;51.226;6.904;2022-07-23T02:04:22;101053.28;;;16.51;100.00
4836;BME280;2432;51.226;6.904;2022-07-23T02:06:49;101057.75;;;16.49;100.00
4836;BME280;2432;51.226;6.904;2022-07-23T02:09:16;101057.09;;;16.44;100.00
4836;BME280;2432;51.226;6.904;2022-07-23T02:11:43;101069.44;;;16.44;100.00
4836;BME280;2432;51.226;6.904;2022-07-23T02:14:09;101059.72;;;16.44;100.00
4836;BME280;2432;51.226;6.904;2022-07-23T02:16:36;101062.03;;;16.53;100.00
4836;BME280;2432;51.226;6.904;2022-07-23T02:19:03;101062.94;;;16.52;100.00
4836;BME280;2432;51.226;6.904;2022-07-23T02:21:30;101049.47;;;16.58;100.00
4836;BME280;2432;51.226;6.904;2022-07-23T02:23:56;101056.38;;;16.62;100.00
4836;BME280;2432;51.226;6.904;2022-07-23T02:26:23;101047.53;;;16.63;100.00
4836;BME280;2432;51.226;6.904;2022-07-23T02:28:50;101043.22;;;16.61;100.00
4836;BME280;2432;51.226;6.904;2022-07-23T02:31:16;101050.97;;;16.65;100.00
4836;BME280;2432;51.226;6.904;2022-07-23T02:33:43;101049.13;;;16.69;100.00
4836;BME280;2432;51.226;6.904;2022-07-23T02:36:09;101051.75;;;16.69;100.00
4836;BME280;2432;51.226;6.904;2022-07-23T02:38:36;101055.69;;;16.57;100.00
4836;BME280;2432;51.226;6.904;2022-07-23T02:41:02;101048.81;;;16.53;100.00
4836;BME280;2432;51.226;6.904;2022-07-23T02:43:29;101040.00;;;16.53;100.00
4836;BME280;2432;51.226;6.904;2022-07-23T02:45:55;101047.75;;;16.57;100.00
4836;BME280;2432;51.226;6.904;2022-07-23T02:48:22;101050.47;;;16.56;100.00
4836;BME280;2432;51.226;6.904;2022-07-23T02:50:48;101049.59;;;16.55;100.00
4836;BME280;2432;51.226;6.904;2022-07-23T02:53:15;101049.88;;;16.48;100.00
4836;BME280;2432;51.226;6.904;2022-07-23T02:55:41;101055.59;;;16.37;100.00
4836;BME280;2432;51.226;6.904;2022-07-23T02:58:08;101061.09;;;16.31;100.00
4836;BME280;2432;51.226;6.904;2022-07-23T03:00:34;101061.00;;;16.34;100.00
4836;BME280;2432;51.226;6.904;2022-07-23T03:03:01;101063.50;;;16.37;100.00
4836;BME280;2432;51.226;6.904;2022-07-23T03:05:27;101058.38;;;16.32;100.00
4836;BME280;2432;51.226;6.904;2022-07-23T03:07:54;101048.66;;;16.33;100.00
4836;BME280;2432;51.226;6.904;2022-07-23T03:10:20;101051.22;;;16.36;100.00
4836;BME280;2432;51.226;6.904;2022-07-23T03:12:47;101052.09;;;16.36;100.00
4836;BME280;2432;51.226;6.904;2022-07-23T03:15:14;101053.97;;;16.33;100.00
4836;BME280;2432;51.226;6.904;2022-07-23T03:17:40;101052.50;;;16.24;100.00
4836;BME280;2432;51.226;6.904;2022-07-23T03:20:07;101055.28;;;16.21;100.00
4836;BME280;2432;51.226;6.904;2022-07-23T03:22:34;101057.19;;;16.18;100.00
4836;BME280;2432;51.226;6.904;2022-07-23T03:25:01;101055.47;;;16.17;100.00
4836;BME280;2432;51.226;6.904;2022-07-23T03:27:29;101055.56;;;16.14;100.00
4836;BME280;2432;51.226;6.904;2022-07-23T03:29:58;101055.81;;;16.06;100.00
4836;BME280;2432;51.226;6.904;2022-07-23T03:32:25;101058.66;;;16.01;100.00
4836;BME280;2432;51.226;6.904;2022-07-23T03:34:52;101054.28;;;16.00;100.00
4836;BME280;2432;51.226;6.904;2022-07-23T03:37:19;101061.28;;;16.01;100.00
4836;BME280;2432;51.226;6.904;2022-07-23T03:39:47;101059.56;;;16.00;100.00
4836;BME280;2432;51.226;6.904;2022-07-23T03:42:13;101056.75;;;16.05;100.00
4836;BME280;2432;51.226;6.904;2022-07-23T03:44:40;101060.38;;;16.02;100.00
4836;BME280;2432;51.226;6.904;2022-07-23T03:47:06;101060.50;;;15.99;100.00
4836;BME280;2432;51.226;6.904;2022-07-23T03:49:33;101058.75;;;15.98;100.00
4836;BME280;2432;51.226;6.904;2022-07-23T03:52:00;101065.19;;;15.91;100.00
4836;BME280;2432;51.226;6.904;2022-07-23T03:54:26;101054.50;;;15.94;100.00
4836;BME280;2432;51.226;6.904;2022-07-23T03:56:53;101061.28;;;16.01;100.00
4836;BME280;2432;51.226;6.904;2022-07-23T03:59:19;101055.03;;;16.04;100.00
4836;BME280;2432;51.226;6.904;2022-07-23T04:01:50;101054.97;;;16.05;100.00
4836;BME280;2432;51.226;6.904;2022-07-23T04:04:16;101061.94;;;16.08;100.00
4836;BME280;2432;51.226;6.904;2022-07-23T04:06:43;101061.03;;;16.09;100.00
4836;BME280;2432;51.226;6.904;2022-07-23T04:09:09;101062.69;;;16.11;100.00
4836;BME280;2432;51.226;6.904;2022-07-23T04:11:36;101064.41;;;16.13;100.00
4836;BME280;2432;51.226;6.904;2022-07-23T04:14:02;101066.19;;;16.12;100.00
4836;BME280;2432;51.226;6.904;2022-07-23T04:16:29;101075.03;;;16.11;100.00
4836;BME280;2432;51.226;6.904;2022-07-23T04:18:57;101068.88;;;16.10;100.00
4836;BME280;2432;51.226;6.904;2022-07-23T04:21:25;101072.84;;;15.99;100.00
4836;BME280;2432;51.226;6.904;2022-07-23T04:23:51;101067.22;;;15.83;100.00
4836;BME280;2432;51.226;6.904;2022-07-23T04:26:18;101061.16;;;15.79;100.00
4836;BME280;2432;51.226;6.904;2022-07-23T04:28:44;101068.47;;;15.71;100.00
4836;BME280;2432;51.226;6.904;2022-07-23T04:31:11;101066.63;;;15.75;100.00
4836;BME280;2432;51.226;6.904;2022-07-23T04:33:37;101075.47;;;15.74;100.00
4836;BME280;2432;51.226;6.904;2022-07-23T04:36:04;101081.34;;;15.82;100.00
4836;BME280;2432;51.226;6.904;2022-07-23T04:38:31;101074.50;;;15.76;100.00
4836;BME280;2432;51.226;6.904;2022-07-23T04:40:59;101073.44;;;15.82;100.00
4836;BME280;2432;51.226;6.904;2022-07-23T04:43:25;101088.34;;;15.83;100.00
4836;BME280;2432;51.226;6.904;2022-07-23T04:45:52;101085.72;;;15.83;100.00
4836;BME280;2432;51.226;6.904;2022-07-23T04:48:18;101101.56;;;15.83;100.00
4836;BME280;2432;51.226;6.904;2022-07-23T04:50:46;101097.34;;;15.77;100.00
4836;BME280;2432;51.226;6.904;2022-07-23T04:53:12;101091.50;;;15.68;100.00
4836;BME280;2432;51.226;6.904;2022-07-23T04:55:39;101108.00;;;15.74;100.00
4836;BME280;2432;51.226;6.904;2022-07-23T04:58:05;101102.25;;;15.62;100.00
4836;BME280;2432;51.226;6.904;2022-07-23T05:00:32;101112.16;;;15.55;100.00
4836;BME280;2432;51.226;6.904;2022-07-23T05:02:58;101105.81;;;15.61;100.00
4836;BME280;2432;51.226;6.904;2022-07-23T05:05:25;101113.75;;;15.61;100.00
4836;BME280;2432;51.226;6.904;2022-07-23T05:07:51;101111.47;;;15.48;100.00
4836;BME280;2432;51.226;6.904;2022-07-23T05:10:18;101113.75;;;15.59;100.00
4836;BME280;2432;51.226;6.904;2022-07-23T05:12:45;101113.38;;;15.71;100.00
4836;BME280;2432;51.226;6.904;2022-07-23T05:15:11;101116.00;;;15.71;100.00
4836;BME280;2432;51.226;6.904;2022-07-23T05:17:38;101112.44;;;15.74;100.00
4836;BME280;2432;51.226;6.904;2022-07-23T05:20:04;101122.06;;;15.75;100.00
4836;BME280;2432;51.226;6.904;2022-07-23T05:22:31;101128.22;;;15.75;100.00
4836;BME280;2432;51.226;6.904;2022-07-23T05:24:58;101132.41;;;15.81;100.00
4836;BME280;2432;51.226;6.904;2022-07-23T05:27:24;101131.28;;;15.88;100.00
4836;BME280;2432;51.226;6.904;2022-07-23T05:29:51;101138.22;;;15.92;100.00
4836;BME280;2432;51.226;6.904;2022-07-23T05:32:17;101133.00;;;15.89;100.00
4836;BME280;2432;51.226;6.904;2022-07-23T05:34:44;101139.00;;;15.94;100.00
4836;BME280;2432;51.226;6.904;2022-07-23T05:37:10;101138.75;;;16.02;100.00
4836;BME280;2432;51.226;6.904;2022-07-23T05:39:37;101135.84;;;16.09;100.00
4836;BME280;2432;51.226;6.904;2022-07-23T05:42:03;101135.63;;;16.16;100.00
4836;BME280;2432;51.226;6.904;2022-07-23T05:44:30;101139.97;;;16.18;100.00
4836;BME280;2432;51.226;6.904;2022-07-23T05:47:00;101141.78;;;16.16;100.00
4836;BME280;2432;51.226;6.904;2022-07-23T05:49:27;101147.16;;;16.13;100.00
4836;BME280;2432;51.226;6.904;2022-07-23T05:51:53;101151.38;;;16.19;100.00
4836;BME280;2432;51.226;6.904;2022-07-23T05:54:20;101148.56;;;16.23;100.00
4836;BME280;2432;51.226;6.904;2022-07-23T05:56:46;101146.84;;;16.22;100.00
4836;BME280;2432;51.226;6.904;2022-07-23T05:59:13;101153.00;;;16.23;100.00
4836;BME280;2432;51.226;6.904;2022-07-23T06:01:41;101142.81;;;16.12;100.00
4836;BME280;2432;51.226;6.904;2022-07-23T06:04:08;101153.38;;;16.12;100.00
4836;BME280;2432;51.226;6.904;2022-07-23T06:06:35;101161.41;;;16.09;100.00
4836;BME280;2432;51.226;6.904;2022-07-23T06:09:01;101164.97;;;16.08;100.00
4836;BME280;2432;51.226;6.904;2022-07-23T06:11:29;101168.41;;;16.10;100.00
4836;BME280;2432;51.226;6.904;2022-07-23T06:13:55;101162.81;;;16.19;100.00
4836;BME280;2432;51.226;6.904;2022-07-23T06:16:22;101163.81;;;16.15;100.00
4836;BME280;2432;51.226;6.904;2022-07-23T06:18:49;101168.25;;;16.15;100.00
4836;BME280;2432;51.226;6.904;2022-07-23T06:21:15;101164.53;;;16.20;100.00
4836;BME280;2432;51.226;6.904;2022-07-23T06:24:02;101159.19;;;16.22;100.00
4836;BME280;2432;51.226;6.904;2022-07-23T06:26:28;101163.56;;;16.23;100.00
4836;BME280;2432;51.226;6.904;2022-07-23T06:28:55;101162.50;;;16.28;100.00
4836;BME280;2432;51.226;6.904;2022-07-23T06:31:21;101158.00;;;16.30;100.00
4836;BME280;2432;51.226;6.904;2022-07-23T06:33:48;101164.06;;;16.34;100.00
4836;BME280;2432;51.226;6.904;2022-07-23T06:36:14;101170.25;;;16.33;100.00
4836;BME280;2432;51.226;6.904;2022-07-23T06:38:41;101166.41;;;16.42;100.00
4836;BME280;2432;51.226;6.904;2022-07-23T06:41:09;101172.47;;;16.45;100.00
4836;BME280;2432;51.226;6.904;2022-07-23T06:43:36;101165.34;;;16.47;100.00
4836;BME280;2432;51.226;6.904;2022-07-23T06:46:02;101176.03;;;16.44;100.00
4836;BME280;2432;51.226;6.904;2022-07-23T06:48:29;101170.69;;;16.46;100.00
4836;BME280;2432;51.226;6.904;2022-07-23T06:50:56;101177.66;;;16.48;100.00
4836;BME280;2432;51.226;6.904;2022-07-23T06:53:22;101170.50;;;16.52;100.00
4836;BME280;2432;51.226;6.904;2022-07-23T06:55:49;101165.81;;;16.58;100.00
4836;BME280;2432;51.226;6.904;2022-07-23T06:58:15;101170.94;;;16.63;100.00
4836;BME280;2432;51.226;6.904;2022-07-23T07:00:42;101170.38;;;16.55;100.00
4836;BME280;2432;51.226;6.904;2022-07-23T07:03:08;101173.72;;;16.60;100.00
4836;BME280;2432;51.226;6.904;2022-07-23T07:05:35;101172.63;;;16.65;100.00
4836;BME280;2432;51.226;6.904;2022-07-23T07:08:01;101179.44;;;16.73;100.00
4836;BME280;2432;51.226;6.904;2022-07-23T07:10:28;101184.72;;;16.73;100.00
4836;BME280;2432;51.226;6.904;2022-07-23T07:12:54;101185.53;;;16.75;100.00
4836;BME280;2432;51.226;6.904;2022-07-23T07:15:21;101189.00;;;16.77;100.00
4836;BME280;2432;51.226;6.904;2022-07-23T07:17:48;101193.25;;;16.81;100.00
4836;BME280;2432;51.226;6.904;2022-07-23T07:20:14;101190.44;;;16.85;100.00
4836;BME280;2432;51.226;6.904;2022-07-23T07:22:41;101198.31;;;16.87;100.00
4836;BME280;2432;51.226;6.904;2022-07-23T07:25:08;101194.63;;;16.91;100.00
4836;BME280;2432;51.226;6.904;2022-07-23T07:27:35;101189.53;;;16.86;100.00
4836;BME280;2432;51.226;6.904;2022-07-23T07:30:03;101192.03;;;16.89;100.00
4836;BME280;2432;51.226;6.904;2022-07-23T07:32:30;101191.81;;;16.95;100.00
4836;BME280;2432;51.226;6.904;2022-07-23T07:35:18;101189.00;;;17.00;100.00
4836;BME280;2432;51.226;6.904;2022-07-23T07:37:45;101198.59;;;17.03;100.00
4836;BME280;2432;51.226;6.904;2022-07-23T07:40:11;101203.88;;;17.03;100.00
4836;BME280;2432;51.226;6.904;2022-07-23T07:42:48;101202.16;;;17.02;100.00
4836;BME280;2432;51.226;6.904;2022-07-23T07:45:16;101208.09;;;17.08;100.00
4836;BME280;2432;51.226;6.904;2022-07-23T07:47:42;101202.56;;;17.14;100.00
4836;BME280;2432;51.226;6.904;2022-07-23T07:50:09;101203.38;;;17.16;100.00
4836;BME280;2432;51.226;6.904;2022-07-23T07:52:37;101211.94;;;17.23;100.00
4836;BME280;2432;51.226;6.904;2022-07-23T07:55:05;101206.53;;;17.26;100.00
4836;BME280;2432;51.226;6.904;2022-07-23T07:57:33;101218.69;;;17.32;100.00
4836;BME280;2432;51.226;6.904;2022-07-23T07:59:59;101208.75;;;17.37;100.00
4836;BME280;2432;51.226;6.904;2022-07-23T08:02:46;101222.81;;;17.39;100.00
4836;BME280;2432;51.226;6.904;2022-07-23T08:05:13;101219.47;;;17.34;100.00
4836;BME280;2432;51.226;6.904;2022-07-23T08:07:40;101215.97;;;17.33;100.00
4836;BME280;2432;51.226;6.904;2022-07-23T08:10:08;101218.56;;;17.35;100.00
4836;BME280;2432;51.226;6.904;2022-07-23T08:15:06;101219.75;;;17.49;100.00
4836;BME280;2432;51.226;6.904;2022-07-23T08:17:40;101216.97;;;17.52;100.00
4836;BME280;2432;51.226;6.904;2022-07-23T08:20:08;101222.09;;;17.57;100.00
4836;BME280;2432;51.226;6.904;2022-07-23T08:22:48;101223.44;;;17.67;100.00
4836;BME280;2432;51.226;6.904;2022-07-23T08:25:20;101219.16;;;17.65;100.00
4836;BME280;2432;51.226;6.904;2022-07-23T08:27:47;101224.69;;;17.59;100.00
4836;BME280;2432;51.226;6.904;2022-07-23T08:30:15;101224.75;;;17.57;100.00
4836;BME280;2432;51.226;6.904;2022-07-23T08:32:59;101231.91;;;17.55;100.00
4836;BME280;2432;51.226;6.904;2022-07-23T08:35:34;101235.28;;;17.59;100.00
4836;BME280;2432;51.226;6.904;2022-07-23T08:38:06;101232.31;;;17.66;100.00
4836;BME280;2432;51.226;6.904;2022-07-23T08:40:35;101237.50;;;17.69;100.00
4836;BME280;2432;51.226;6.904;2022-07-23T08:43:10;101229.75;;;17.65;100.00
4836;BME280;2432;51.226;6.904;2022-07-23T08:45:39;101238.63;;;17.64;100.00
4836;BME280;2432;51.226;6.904;2022-07-23T08:48:15;101238.16;;;17.76;100.00
4836;BME280;2432;51.226;6.904;2022-07-23T08:50:47;101235.31;;;17.80;100.00
4836;BME280;2432;51.226;6.904;2022-07-23T08:53:15;101238.63;;;17.86;100.00
4836;BME280;2432;51.226;6.904;2022-07-23T08:55:47;101238.63;;;17.86;100.00
4836;BME280;2432;51.226;6.904;2022-07-23T08:58:14;101247.38;;;17.88;100.00
4836;BME280;2432;51.226;6.904;2022-07-23T09:00:42;101242.16;;;17.86;100.00
4836;BME280;2432;51.226;6.904;2022-07-23T09:03:23;101244.06;;;17.83;100.00
4836;BME280;2432;51.226;6.904;2022-07-23T09:05:51;101245.66;;;17.87;100.00
4836;BME280;2432;51.226;6.904;2022-07-23T09:08:23;101251.81;;;18.09;100.00
4836;BME280;2432;51.226;6.904;2022-07-23T09:10:59;101247.31;;;18.11;100.00
4836;BME280;2432;51.226;6.904;2022-07-23T09:16:07;101247.13;;;18.16;100.00
4836;BME280;2432;51.226;6.904;2022-07-23T09:21:06;101253.63;;;18.08;100.00
4836;BME280;2432;51.226;6.904;2022-07-23T09:23:37;101249.81;;;18.14;100.00
4836;BME280;2432;51.226;6.904;2022-07-23T09:26:32;101247.63;;;18.25;100.00
4836;BME280;2432;51.226;6.904;2022-07-23T09:31:33;101243.66;;;18.35;100.00
4836;BME280;2432;51.226;6.904;2022-07-23T09:34:09;101232.91;;;18.39;100.00
4836;BME280;2432;51.226;6.904;2022-07-23T10:44:15;101235.97;;;19.09;100.00
4836;BME280;2432;51.226;6.904;2022-07-23T10:47:02;101231.69;;;19.07;100.00
4836;BME280;2432;51.226;6.904;2022-07-23T10:49:41;101230.31;;;19.17;100.00
4836;BME280;2432;51.226;6.904;2022-07-23T10:54:46;101226.88;;;18.96;100.00
4836;BME280;2432;51.226;6.904;2022-07-23T10:57:14;101229.97;;;19.06;100.00
4836;BME280;2432;51.226;6.904;2022-07-23T11:02:31;101218.69;;;19.19;100.00
4836;BME280;2432;51.226;6.904;2022-07-23T11:05:07;101215.59;;;19.10;100.00
4836;BME280;2432;51.226;6.904;2022-07-23T11:07:35;101227.66;;;18.98;100.00
4836;BME280;2432;51.226;6.904;2022-07-23T11:10:03;101226.31;;;19.27;100.00
4836;BME280;2432;51.226;6.904;2022-07-23T11:15:08;101220.94;;;19.47;100.00
4836;BME280;2432;51.226;6.904;2022-07-23T11:27:53;101224.03;;;19.57;100.00
4836;BME280;2432;51.226;6.904;2022-07-23T11:35:44;101229.53;;;19.71;100.00
4836;BME280;2432;51.226;6.904;2022-07-23T11:38:19;101230.38;;;19.91;100.00
4836;BME280;2432;51.226;6.904;2022-07-23T11:40:52;101237.75;;;20.03;100.00
4836;BME280;2432;51.226;6.904;2022-07-23T11:43:21;101228.75;;;20.05;100.00
4836;BME280;2432;51.226;6.904;2022-07-23T11:45:53;101219.69;;;20.10;97.89
4836;BME280;2432;51.226;6.904;2022-07-23T11:48:26;101225.00;;;20.10;99.83
4836;BME280;2432;51.226;6.904;2022-07-23T11:50:54;101226.44;;;20.17;98.53
4836;BME280;2432;51.226;6.904;2022-07-23T11:53:27;101215.41;;;19.88;100.00
4836;BME280;2432;51.226;6.904;2022-07-23T11:56:05;101210.22;;;19.68;100.00
4836;BME280;2432;51.226;6.904;2022-07-23T11:58:32;101209.13;;;19.53;100.00
4836;BME280;2432;51.226;6.904;2022-07-23T12:00:59;101217.47;;;19.45;100.00
4836;BME280;2432;51.226;6.904;2022-07-23T12:03:26;101208.22;;;19.73;100.00
4836;BME280;2432;51.226;6.904;2022-07-23T12:06:00;101217.34;;;20.38;98.48
4836;BME280;2432;51.226;6.904;2022-07-23T12:08:26;101220.09;;;20.71;92.88
4836;BME280;2432;51.226;6.904;2022-07-23T12:10:53;101220.81;;;20.91;98.66
4836;BME280;2432;51.226;6.904;2022-07-23T12:13:21;101210.66;;;21.14;100.00
4836;BME280;2432;51.226;6.904;2022-07-23T12:15:52;101222.66;;;21.39;85.18
4836;BME280;2432;51.226;6.904;2022-07-23T12:18:21;101216.72;;;21.65;77.31
4836;BME280;2432;51.226;6.904;2022-07-23T12:20:50;101215.03;;;21.94;96.57
4836;BME280;2432;51.226;6.904;2022-07-23T12:23:19;101205.56;;;22.05;93.42
4836;BME280;2432;51.226;6.904;2022-07-23T12:25:48;101207.84;;;22.26;100.00
4836;BME280;2432;51.226;6.904;2022-07-23T12:28:27;101209.97;;;22.50;100.00
4836;BME280;2432;51.226;6.904;2022-07-23T12:30:55;101210.47;;;22.56;77.23
4836;BME280;2432;51.226;6.904;2022-07-23T12:35:59;101228.59;;;22.96;62.80
4836;BME280;2432;51.226;6.904;2022-07-23T12:38:27;101212.72;;;23.07;65.35
4836;BME280;2432;51.226;6.904;2022-07-23T12:40:58;101220.00;;;23.05;63.90
4836;BME280;2432;51.226;6.904;2022-07-23T12:43:46;101217.50;;;23.16;63.48
4836;BME280;2432;51.226;6.904;2022-07-23T12:46:18;101215.69;;;23.17;61.50
4836;BME280;2432;51.226;6.904;2022-07-23T12:48:52;101228.34;;;23.27;60.73
4836;BME280;2432;51.226;6.904;2022-07-23T12:51:26;101217.66;;;23.27;59.30
4836;BME280;2432;51.226;6.904;2022-07-23T12:53:57;101221.78;;;23.19;58.84
4836;BME280;2432;51.226;6.904;2022-07-23T12:56:36;101222.19;;;23.54;61.43
4836;BME280;2432;51.226;6.904;2022-07-23T13:01:33;101224.16;;;23.79;68.40
4836;BME280;2432;51.226;6.904;2022-07-23T13:06:44;101222.16;;;23.82;65.48
4836;BME280;2432;51.226;6.904;2022-07-23T13:09:18;101225.09;;;23.65;71.33
4836;BME280;2432;51.226;6.904;2022-07-23T13:11:46;101230.09;;;23.00;80.63
4836;BME280;2432;51.226;6.904;2022-07-23T13:14:14;101235.13;;;22.32;68.10
4836;BME280;2432;51.226;6.904;2022-07-23T13:16:41;101234.41;;;21.98;69.55
4836;BME280;2432;51.226;6.904;2022-07-23T13:19:08;101232.28;;;21.73;69.88
4836;BME280;2432;51.226;6.904;2022-07-23T13:21:39;101238.19;;;21.62;76.07
4836;BME280;2432;51.226;6.904;2022-07-23T13:24:07;101232.34;;;21.71;75.67
4836;BME280;2432;51.226;6.904;2022-07-23T13:26:35;101223.94;;;22.55;65.77
4836;BME280;2432;51.226;6.904;2022-07-23T13:29:02;101229.09;;;22.72;70.71
4836;BME280;2432;51.226;6.904;2022-07-23T13:31:29;101217.94;;;22.66;71.42
4836;BME280;2432;51.226;6.904;2022-07-23T13:33:57;101223.78;;;23.01;75.83
4836;BME280;2432;51.226;6.904;2022-07-23T13:36:25;101218.81;;;23.23;75.52
4836;BME280;2432;51.226;6.904;2022-07-23T13:38:51;101218.38;;;23.58;64.43
4836;BME280;2432;51.226;6.904;2022-07-23T13:41:18;101207.00;;;23.68;67.64
4836;BME280;2432;51.226;6.904;2022-07-23T13:43:45;101208.13;;;23.79;62.99
4836;BME280;2432;51.226;6.904;2022-07-23T13:46:13;101209.75;;;23.81;64.28
4836;BME280;2432;51.226;6.904;2022-07-23T13:48:39;101201.63;;;23.83;66.14
4836;BME280;2432;51.226;6.904;2022-07-23T13:51:07;101202.06;;;23.89;68.40
4836;BME280;2432;51.226;6.904;2022-07-23T13:53:36;101200.44;;;23.87;67.27
4836;BME280;2432;51.226;6.904;2022-07-23T13:56:03;101202.38;;;23.97;61.20
4836;BME280;2432;51.226;6.904;2022-07-23T13:58:30;101195.44;;;23.95;60.89
4836;BME280;2432;51.226;6.904;2022-07-23T14:00:56;101194.19;;;24.01;61.26
4836;BME280;2432;51.226;6.904;2022-07-23T14:03:23;101191.03;;;23.94;61.01
4836;BME280;2432;51.226;6.904;2022-07-23T14:05:51;101203.72;;;23.78;57.82
4836;BME280;2432;51.226;6.904;2022-07-23T14:08:22;101199.56;;;23.74;60.56
4836;BME280;2432;51.226;6.904;2022-07-23T14:10:48;101197.38;;;23.66;59.34
4836;BME280;2432;51.226;6.904;2022-07-23T14:13:15;101197.78;;;23.60;61.30
4836;BME280;2432;51.226;6.904;2022-07-23T14:15:42;101191.56;;;23.59;61.16
4836;BME280;2432;51.226;6.904;2022-07-23T14:18:09;101203.06;;;23.33;65.42
4836;BME280;2432;51.226;6.904;2022-07-23T14:20:36;101205.56;;;22.93;61.46
4836;BME280;2432;51.226;6.904;2022-07-23T14:23:03;101200.09;;;22.66;64.38
4836;BME280;2432;51.226;6.904;2022-07-23T14:25:31;101199.63;;;22.74;66.28
4836;BME280;2432;51.226;6.904;2022-07-23T14:27:59;101193.03;;;22.65;66.90
4836;BME280;2432;51.226;6.904;2022-07-23T14:30:26;101201.47;;;23.02;62.05
4836;BME280;2432;51.226;6.904;2022-07-23T14:33:00;101206.91;;;23.00;64.72
4836;BME280;2432;51.226;6.904;2022-07-23T14:35:26;101197.28;;;22.98;62.85
4836;BME280;2432;51.226;6.904;2022-07-23T14:37:53;101201.28;;;23.05;60.08
4836;BME280;2432;51.226;6.904;2022-07-23T14:40:21;101194.59;;;23.12;60.89
4836;BME280;2432;51.226;6.904;2022-07-23T14:42:49;101192.69;;;23.00;64.01
4836;BME280;2432;51.226;6.904;2022-07-23T14:45:15;101197.72;;;23.19;60.92
4836;BME280;2432;51.226;6.904;2022-07-23T14:47:44;101191.06;;;23.11;65.50
4836;BME280;2432;51.226;6.904;2022-07-23T14:50:13;101186.59;;;22.98;62.79
4836;BME280;2432;51.226;6.904;2022-07-23T14:52:40;101189.16;;;23.13;60.33
4836;BME280;2432;51.226;6.904;2022-07-23T14:55:07;101184.47;;;23.17;59.74
4836;BME280;2432;51.226;6.904;2022-07-23T14:57:34;101191.72;;;23.15;63.32